Aérodrome :
LOGIN :

S'inscrire | Disclaimer

   EN    FR    IT 

 










Légende :    VFR   VFR Marginal   IFR   IFR Intensif   IFR Très Intensif
Visi : 
Plafond : 
>= 8 km
>= 3000ft
5 à 8 km
1000 à 3000 ft
1500m à 5 km
500 à 1000 ft
800 à 1500m
200 à 500 ft
< 800m
< 200 ft
Symboles :   Orages  Brouillard  Fortes neiges  Fortes précipitations  Vent > 20 kt
SIGMETs :   Divers  Orages  Givrage  Turbulence  Onde Orograph.  Cendres Volcan.






- Altitude de l'aérodrome : 142 ft
- Code IATA : ALC


LEAL - Alicante

DERNIER METAR :
  • 290230Z 23006KT CAVOK 07/05 Q1018 NOSIG

METARs EXPIRÉS :
  • 290200Z 25006KT CAVOK 08/06 Q1018 NOSIG
  • 290130Z 26006KT CAVOK 08/06 Q1018 NOSIG
  • 290100Z 26006KT CAVOK 08/06 Q1019 NOSIG

TAF TAF LEAL
Valide du 29 à 00h jusqu'au 30 à 00h UTC


282300Z 2900/2924 30008KT 9999 FEW020 TX19/2913Z TN08/2908Z
BECMG 2906/2908 VRB03KT
BECMG 2911/2913 18012KT
BECMG 2918/2920 24006KT



MET'MAP, la Météo Aéronautique d'un coup d'oeil ! - Copyright ORBIFLY Décembre 2007 - Disclaimer

ORBIFLY MET'MAP TEAM :

Programmation & Développement : Alexandra Zaïnal
Sur une idée originale de : Baudouin d'Aumeries
Assistance à la programmation : Marc-Olivier Méhu
Soutien technique & logistique : Manuel Goepfert

Contact : metmap@orbifly.com




SOURCES & CREDITS :

   NOAA